INFORMACIÓN METAR y TAF
METAR FOR LMML
ADDS - METARS form results

(1748 UTC 28 May 2020)
Data provider http://aviationweather.gov/metar/data/
 
METAR text: LMML 281745Z 24009KT 210V280 9999 FEW026 20/14 Q1022
Conditions at: LMML (LUQA/MALTA , MT) observed 1745 UTC 28 May 2020
Temperature: 20.0°C (68°F)
Dewpoint: 14.0°C (57°F) [RH = 68%]
Pressure (altimeter): 30.18 inches Hg (1022.0 mb)
Winds: from the WSW (240 degrees) at 10 MPH (9 knots; 4.6 m/s)
Visibility: 6 or more miles (10+ km)
Ceiling: at least 12,000 feet AGL
Clouds: few clouds at 2600 feet AGL
Weather: no significant weather observed at this time

METAR text: LMML 281715Z 25009KT 210V280 9999 FEW026 21/14 Q1022
Conditions at: LMML (LUQA/MALTA , MT) observed 1715 UTC 28 May 2020
Temperature: 21.0°C (70°F)
Dewpoint: 14.0°C (57°F) [RH = 64%]
Pressure (altimeter): 30.18 inches Hg (1022.0 mb)
Winds: from the WSW (250 degrees) at 10 MPH (9 knots; 4.6 m/s)
Visibility: 6 or more miles (10+ km)
Ceiling: at least 12,000 feet AGL
Clouds: few clouds at 2600 feet AGL
Weather: no significant weather observed at this time

Forecast for: LMML (LUQA/MALTA , MT)
Text: TAF LMML 281100Z 2812/2912 26009KT 9999 SCT017
Forecast period: 1200 UTC 28 May 2020 to 1200 UTC 29 May 2020
Forecast type: FROM: standard forecast or significant change
Winds: from the W (260 degrees) at 10 MPH (9 knots; 4.6 m/s)
Visibility: 6 or more miles 10+ km)
Ceiling: at least 12,000 feet AGL
Clouds: scattered clouds at 1700 feet AGL
Weather: no significant weather forecast for this period

 MAPA DE AEROPUERTO

 INFORMACIÓN DE PISTA
Pista 05 Longitud 7799 ft Ancho 148 ft
Elevación 297 ft Umbral desplazado 0 ft Rumbo de pista 56
Pista 23 Longitud 7799 ft Ancho 148 ft
Elevación 247 ft Umbral desplazado 0 ft Rumbo de pista 236
Pista 13 Longitud 11627 ft Ancho 197 ft
Elevación 256 ft Umbral desplazado 0 ft Rumbo de pista 135
Pista 31 Longitud 11627 ft Ancho 197 ft
Elevación 230 ft Umbral desplazado 620 ft Rumbo de pista 315

 FRECUANCIAS DEL AEROPUERTO
Tipo APP Nombre APP Frecuencia 128.15 MHZ
Tipo Distance R Nombre Frecuencia 130.975 MHZ
Tipo Ground Nombre Ground Frecuencia 121.6 MHZ
Tipo Leaving Nombre Frecuencia 123.625 MHZ
Tipo Runway Nombre Runway Frecuencia 138.1 MHZ
Tipo Volmet Nombre Frecuencia 126.8 MHZ
Tipo Weather Nombre WX Frecuencia 127.4 MHZ

 RADIO AYUDAS DEL AEROPUERTO
Tipo DME Nombre Malta Frecuencia 110500 KHZ
Tipo DME Nombre Luqa Frecuencia 109700 KHZ
Tipo NDB Nombre Luqa Frecuencia 416 KHZ
Tipo NDB Nombre Malta Frecuencia 395 KHZ